sensor_id;sensor_type;location;lat;lon;timestamp;pressure;altitude;pressure_sealevel;temperature;humidity
48810;BME280;40070;47.322;18.784;2023-02-11T00:01:47;1024.05;;;-2.36;62.98
48810;BME280;40070;47.322;18.784;2023-02-11T00:03:50;1023.96;;;-2.04;62.31
48810;BME280;40070;47.322;18.784;2023-02-11T00:05:56;1023.98;;;-2.19;62.25
48810;BME280;40070;47.322;18.784;2023-02-11T00:07:59;1023.90;;;-1.97;61.73
48810;BME280;40070;47.322;18.784;2023-02-11T00:10:02;1023.91;;;-2.28;62.04
48810;BME280;40070;47.322;18.784;2023-02-11T00:12:04;1023.97;;;-2.45;63.07
48810;BME280;40070;47.322;18.784;2023-02-11T00:14:07;1023.94;;;-2.24;62.67
48810;BME280;40070;47.322;18.784;2023-02-11T00:16:12;1023.97;;;-2.68;64.10
48810;BME280;40070;47.322;18.784;2023-02-11T00:18:15;1023.95;;;-3.05;65.56
48810;BME280;40070;47.322;18.784;2023-02-11T00:20:18;1023.91;;;-2.77;65.30
48810;BME280;40070;47.322;18.784;2023-02-11T00:22:20;1023.92;;;-2.67;64.52
48810;BME280;40070;47.322;18.784;2023-02-11T00:24:23;1023.87;;;-2.43;64.22
48810;BME280;40070;47.322;18.784;2023-02-11T00:26:26;1023.79;;;-2.08;62.91
48810;BME280;40070;47.322;18.784;2023-02-11T00:28:29;1023.80;;;-2.05;62.64
48810;BME280;40070;47.322;18.784;2023-02-11T00:30:31;1023.74;;;-2.04;62.18
48810;BME280;40070;47.322;18.784;2023-02-11T00:32:34;1023.73;;;-1.83;61.58
48810;BME280;40070;47.322;18.784;2023-02-11T00:34:36;1023.72;;;-1.83;61.11
48810;BME280;40070;47.322;18.784;2023-02-11T00:36:38;1023.68;;;-1.78;60.81
48810;BME280;40070;47.322;18.784;2023-02-11T00:38:41;1023.64;;;-1.69;60.48
48810;BME280;40070;47.322;18.784;2023-02-11T00:40:44;1023.66;;;-1.89;60.75
48810;BME280;40070;47.322;18.784;2023-02-11T00:42:46;1023.66;;;-2.17;61.31
48810;BME280;40070;47.322;18.784;2023-02-11T00:44:48;1023.68;;;-2.10;61.23
48810;BME280;40070;47.322;18.784;2023-02-11T00:46:51;1023.62;;;-2.34;61.90
48810;BME280;40070;47.322;18.784;2023-02-11T00:48:53;1023.62;;;-2.06;60.95
48810;BME280;40070;47.322;18.784;2023-02-11T00:50:55;1023.57;;;-1.96;60.33
48810;BME280;40070;47.322;18.784;2023-02-11T00:52:58;1023.53;;;-2.09;60.50
48810;BME280;40070;47.322;18.784;2023-02-11T00:55:00;1023.52;;;-2.10;60.69
48810;BME280;40070;47.322;18.784;2023-02-11T00:57:03;1023.52;;;-2.15;60.55
48810;BME280;40070;47.322;18.784;2023-02-11T00:59:05;1023.53;;;-2.30;60.94
48810;BME280;40070;47.322;18.784;2023-02-11T01:01:07;1023.60;;;-2.66;61.79
48810;BME280;40070;47.322;18.784;2023-02-11T01:03:10;1023.48;;;-2.40;61.30
48810;BME280;40070;47.322;18.784;2023-02-11T01:05:12;1023.46;;;-2.49;61.18
48810;BME280;40070;47.322;18.784;2023-02-11T01:07:14;1023.43;;;-2.31;60.69
48810;BME280;40070;47.322;18.784;2023-02-11T01:09:17;1023.47;;;-2.47;60.81
48810;BME280;40070;47.322;18.784;2023-02-11T01:11:19;1023.39;;;-2.37;60.68
48810;BME280;40070;47.322;18.784;2023-02-11T01:13:22;1023.37;;;-2.44;61.04
48810;BME280;40070;47.322;18.784;2023-02-11T01:15:25;1023.34;;;-2.24;60.79
48810;BME280;40070;47.322;18.784;2023-02-11T01:17:27;1023.31;;;-2.26;60.84
48810;BME280;40070;47.322;18.784;2023-02-11T01:19:29;1023.22;;;-2.39;60.97
48810;BME280;40070;47.322;18.784;2023-02-11T01:21:32;1023.26;;;-2.34;61.35
48810;BME280;40070;47.322;18.784;2023-02-11T01:23:34;1023.19;;;-2.17;61.17
48810;BME280;40070;47.322;18.784;2023-02-11T01:25:36;1023.17;;;-1.99;60.74
48810;BME280;40070;47.322;18.784;2023-02-11T01:27:39;1023.19;;;-2.16;60.51
48810;BME280;40070;47.322;18.784;2023-02-11T01:29:41;1023.16;;;-2.21;59.96
48810;BME280;40070;47.322;18.784;2023-02-11T01:31:44;1023.11;;;-2.19;60.31
48810;BME280;40070;47.322;18.784;2023-02-11T01:33:46;1023.10;;;-2.15;59.92
48810;BME280;40070;47.322;18.784;2023-02-11T01:35:48;1023.02;;;-2.23;60.23
48810;BME280;40070;47.322;18.784;2023-02-11T01:37:51;1023.04;;;-2.26;60.17
48810;BME280;40070;47.322;18.784;2023-02-11T01:39:53;1023.02;;;-2.12;59.80
48810;BME280;40070;47.322;18.784;2023-02-11T01:41:55;1023.06;;;-2.21;59.86
48810;BME280;40070;47.322;18.784;2023-02-11T01:43:58;1023.05;;;-2.33;60.16
48810;BME280;40070;47.322;18.784;2023-02-11T01:46:10;1023.03;;;-2.28;60.26
48810;BME280;40070;47.322;18.784;2023-02-11T01:48:15;1023.00;;;-2.33;60.51
48810;BME280;40070;47.322;18.784;2023-02-11T01:50:20;1023.01;;;-2.49;60.93
48810;BME280;40070;47.322;18.784;2023-02-11T01:52:26;1023.01;;;-2.39;60.67
48810;BME280;40070;47.322;18.784;2023-02-11T01:54:32;1022.93;;;-2.29;59.97
48810;BME280;40070;47.322;18.784;2023-02-11T01:56:36;1022.95;;;-2.37;60.25
48810;BME280;40070;47.322;18.784;2023-02-11T01:58:40;1022.95;;;-2.52;60.63
48810;BME280;40070;47.322;18.784;2023-02-11T02:00:43;1022.95;;;-2.66;60.89
48810;BME280;40070;47.322;18.784;2023-02-11T02:02:50;1022.95;;;-2.74;61.43
48810;BME280;40070;47.322;18.784;2023-02-11T02:04:56;1022.93;;;-2.75;61.83
48810;BME280;40070;47.322;18.784;2023-02-11T02:07:02;1022.96;;;-2.69;61.08
48810;BME280;40070;47.322;18.784;2023-02-11T02:09:08;1023.00;;;-2.76;61.23
48810;BME280;40070;47.322;18.784;2023-02-11T02:11:12;1023.00;;;-3.02;62.18
48810;BME280;40070;47.322;18.784;2023-02-11T02:13:14;1022.96;;;-2.80;61.71
48810;BME280;40070;47.322;18.784;2023-02-11T02:15:18;1023.04;;;-2.97;61.34
48810;BME280;40070;47.322;18.784;2023-02-11T02:17:25;1023.02;;;-2.83;61.40
48810;BME280;40070;47.322;18.784;2023-02-11T02:22:02;1022.93;;;-2.78;61.28
48810;BME280;40070;47.322;18.784;2023-02-11T02:33:32;1022.90;;;-2.93;61.81
48810;BME280;40070;47.322;18.784;2023-02-11T02:35:43;1022.88;;;-2.76;61.55
48810;BME280;40070;47.322;18.784;2023-02-11T02:40:03;1022.79;;;-2.75;61.16
48810;BME280;40070;47.322;18.784;2023-02-11T02:42:08;1022.80;;;-3.08;62.18
48810;BME280;40070;47.322;18.784;2023-02-11T02:44:11;1022.79;;;-3.43;63.14
48810;BME280;40070;47.322;18.784;2023-02-11T02:48:31;1022.68;;;-2.94;61.91
48810;BME280;40070;47.322;18.784;2023-02-11T02:50:35;1022.67;;;-2.92;61.71
48810;BME280;40070;47.322;18.784;2023-02-11T02:52:45;1022.69;;;-2.81;61.56
48810;BME280;40070;47.322;18.784;2023-02-11T02:55:11;1022.68;;;-2.79;61.25
48810;BME280;40070;47.322;18.784;2023-02-11T03:04:34;1022.78;;;-2.79;61.09
48810;BME280;40070;47.322;18.784;2023-02-11T03:06:42;1022.71;;;-2.95;61.17
48810;BME280;40070;47.322;18.784;2023-02-11T03:08:49;1022.79;;;-3.22;61.51
48810;BME280;40070;47.322;18.784;2023-02-11T03:10:55;1022.76;;;-2.91;60.61
48810;BME280;40070;47.322;18.784;2023-02-11T03:12:59;1022.80;;;-2.80;60.28
48810;BME280;40070;47.322;18.784;2023-02-11T03:15:02;1022.81;;;-2.98;60.75
48810;BME280;40070;47.322;18.784;2023-02-11T03:17:06;1022.84;;;-3.10;61.24
48810;BME280;40070;47.322;18.784;2023-02-11T03:19:20;1022.85;;;-3.12;61.09
48810;BME280;40070;47.322;18.784;2023-02-11T03:21:23;1022.79;;;-3.13;61.16
48810;BME280;40070;47.322;18.784;2023-02-11T03:23:36;1022.74;;;-3.20;61.52
48810;BME280;40070;47.322;18.784;2023-02-11T03:25:41;1022.65;;;-2.81;61.02
48810;BME280;40070;47.322;18.784;2023-02-11T03:27:51;1022.61;;;-2.74;60.91
48810;BME280;40070;47.322;18.784;2023-02-11T03:30:00;1022.61;;;-2.85;61.15
48810;BME280;40070;47.322;18.784;2023-02-11T03:32:08;1022.63;;;-2.96;61.61
48810;BME280;40070;47.322;18.784;2023-02-11T03:34:29;1022.63;;;-2.97;62.26
48810;BME280;40070;47.322;18.784;2023-02-11T03:36:47;1022.62;;;-2.73;61.77
48810;BME280;40070;47.322;18.784;2023-02-11T03:38:51;1022.58;;;-2.73;61.57
48810;BME280;40070;47.322;18.784;2023-02-11T03:40:56;1022.52;;;-2.67;61.41
48810;BME280;40070;47.322;18.784;2023-02-11T03:43:05;1022.53;;;-2.74;61.30
48810;BME280;40070;47.322;18.784;2023-02-11T03:45:11;1022.46;;;-3.13;62.67
48810;BME280;40070;47.322;18.784;2023-02-11T03:47:15;1022.40;;;-2.73;61.91
48810;BME280;40070;47.322;18.784;2023-02-11T03:49:20;1022.35;;;-2.72;61.60
48810;BME280;40070;47.322;18.784;2023-02-11T03:51:24;1022.34;;;-2.78;61.72
48810;BME280;40070;47.322;18.784;2023-02-11T03:53:28;1022.27;;;-2.62;61.48
48810;BME280;40070;47.322;18.784;2023-02-11T03:55:32;1022.24;;;-2.65;61.45
48810;BME280;40070;47.322;18.784;2023-02-11T03:57:36;1022.23;;;-2.65;61.19
48810;BME280;40070;47.322;18.784;2023-02-11T03:59:51;1022.20;;;-2.75;61.18
48810;BME280;40070;47.322;18.784;2023-02-11T04:01:54;1022.16;;;-2.94;60.80
48810;BME280;40070;47.322;18.784;2023-02-11T04:03:56;1022.13;;;-3.00;61.22
48810;BME280;40070;47.322;18.784;2023-02-11T04:05:59;1022.12;;;-2.86;61.07
48810;BME280;40070;47.322;18.784;2023-02-11T04:08:01;1022.08;;;-3.04;61.22
48810;BME280;40070;47.322;18.784;2023-02-11T04:10:03;1022.04;;;-3.07;61.51
48810;BME280;40070;47.322;18.784;2023-02-11T04:12:06;1021.97;;;-3.00;61.08
48810;BME280;40070;47.322;18.784;2023-02-11T04:14:09;1021.99;;;-3.11;60.99
48810;BME280;40070;47.322;18.784;2023-02-11T04:16:11;1021.96;;;-3.00;60.69
48810;BME280;40070;47.322;18.784;2023-02-11T04:18:13;1021.95;;;-2.91;60.52
48810;BME280;40070;47.322;18.784;2023-02-11T04:20:16;1021.96;;;-3.06;60.41
48810;BME280;40070;47.322;18.784;2023-02-11T04:22:18;1021.91;;;-3.24;60.32
48810;BME280;40070;47.322;18.784;2023-02-11T04:24:21;1021.90;;;-3.28;60.43
48810;BME280;40070;47.322;18.784;2023-02-11T04:26:23;1021.86;;;-3.36;60.47
48810;BME280;40070;47.322;18.784;2023-02-11T04:28:25;1021.81;;;-3.27;60.00
48810;BME280;40070;47.322;18.784;2023-02-11T04:30:28;1021.78;;;-3.46;60.74
48810;BME280;40070;47.322;18.784;2023-02-11T04:32:30;1021.76;;;-3.31;60.69
48810;BME280;40070;47.322;18.784;2023-02-11T04:34:33;1021.77;;;-3.42;60.97
48810;BME280;40070;47.322;18.784;2023-02-11T04:36:35;1021.85;;;-3.60;61.44
48810;BME280;40070;47.322;18.784;2023-02-11T04:38:37;1021.82;;;-4.01;62.65
48810;BME280;40070;47.322;18.784;2023-02-11T04:40:40;1021.78;;;-4.04;62.97
48810;BME280;40070;47.322;18.784;2023-02-11T04:42:42;1021.80;;;-3.93;62.75
48810;BME280;40070;47.322;18.784;2023-02-11T04:44:44;1021.73;;;-3.72;62.12
48810;BME280;40070;47.322;18.784;2023-02-11T04:46:47;1021.75;;;-3.70;61.97
48810;BME280;40070;47.322;18.784;2023-02-11T04:48:49;1021.71;;;-3.45;61.16
48810;BME280;40070;47.322;18.784;2023-02-11T04:50:51;1021.74;;;-3.52;61.68
48810;BME280;40070;47.322;18.784;2023-02-11T04:52:54;1021.81;;;-3.58;61.98
48810;BME280;40070;47.322;18.784;2023-02-11T04:54:56;1021.78;;;-3.46;61.85
48810;BME280;40070;47.322;18.784;2023-02-11T04:56:59;1021.79;;;-3.49;61.78
48810;BME280;40070;47.322;18.784;2023-02-11T04:59:01;1021.76;;;-3.44;61.19
48810;BME280;40070;47.322;18.784;2023-02-11T05:01:04;1021.75;;;-3.44;60.96
48810;BME280;40070;47.322;18.784;2023-02-11T05:03:07;1021.79;;;-3.24;60.51
48810;BME280;40070;47.322;18.784;2023-02-11T05:05:09;1021.77;;;-3.21;60.20
48810;BME280;40070;47.322;18.784;2023-02-11T05:07:11;1021.80;;;-3.45;60.62
48810;BME280;40070;47.322;18.784;2023-02-11T05:09:14;1021.82;;;-3.49;60.90
48810;BME280;40070;47.322;18.784;2023-02-11T05:11:17;1021.89;;;-3.79;61.63
48810;BME280;40070;47.322;18.784;2023-02-11T05:13:20;1021.83;;;-3.77;61.80
48810;BME280;40070;47.322;18.784;2023-02-11T05:15:23;1021.85;;;-3.70;61.64
48810;BME280;40070;47.322;18.784;2023-02-11T05:17:25;1021.83;;;-3.66;61.29
48810;BME280;40070;47.322;18.784;2023-02-11T05:19:27;1021.87;;;-3.74;61.52
48810;BME280;40070;47.322;18.784;2023-02-11T05:21:30;1021.87;;;-4.33;63.11
48810;BME280;40070;47.322;18.784;2023-02-11T05:23:32;1021.81;;;-4.60;63.70
48810;BME280;40070;47.322;18.784;2023-02-11T05:25:35;1021.84;;;-4.68;64.24
48810;BME280;40070;47.322;18.784;2023-02-11T05:27:37;1021.85;;;-4.81;64.53
48810;BME280;40070;47.322;18.784;2023-02-11T05:29:39;1021.89;;;-4.84;64.53
48810;BME280;40070;47.322;18.784;2023-02-11T05:31:42;1021.85;;;-4.63;64.02
48810;BME280;40070;47.322;18.784;2023-02-11T05:33:44;1021.83;;;-4.49;63.72
48810;BME280;40070;47.322;18.784;2023-02-11T05:35:46;1021.84;;;-4.50;63.74
48810;BME280;40070;47.322;18.784;2023-02-11T05:37:49;1021.82;;;-4.26;63.42
48810;BME280;40070;47.322;18.784;2023-02-11T05:39:51;1021.83;;;-4.07;62.88
48810;BME280;40070;47.322;18.784;2023-02-11T05:41:53;1021.83;;;-3.80;62.26
48810;BME280;40070;47.322;18.784;2023-02-11T05:43:56;1021.76;;;-3.71;62.13
48810;BME280;40070;47.322;18.784;2023-02-11T05:45:58;1021.79;;;-3.75;62.21
48810;BME280;40070;47.322;18.784;2023-02-11T05:48:00;1021.75;;;-3.77;62.23
48810;BME280;40070;47.322;18.784;2023-02-11T05:50:03;1021.76;;;-3.65;61.87
48810;BME280;40070;47.322;18.784;2023-02-11T05:52:05;1021.73;;;-3.63;61.88
48810;BME280;40070;47.322;18.784;2023-02-11T05:54:08;1021.73;;;-3.58;61.78
48810;BME280;40070;47.322;18.784;2023-02-11T05:56:10;1021.79;;;-3.68;61.84
48810;BME280;40070;47.322;18.784;2023-02-11T05:58:12;1021.76;;;-3.58;61.64
48810;BME280;40070;47.322;18.784;2023-02-11T06:00:15;1021.75;;;-3.52;61.39
48810;BME280;40070;47.322;18.784;2023-02-11T06:02:17;1021.83;;;-3.73;61.91
48810;BME280;40070;47.322;18.784;2023-02-11T06:04:20;1021.75;;;-3.41;61.13
48810;BME280;40070;47.322;18.784;2023-02-11T06:06:22;1021.73;;;-3.33;60.91
48810;BME280;40070;47.322;18.784;2023-02-11T06:08:25;1021.78;;;-3.32;60.95
48810;BME280;40070;47.322;18.784;2023-02-11T06:10:27;1021.81;;;-3.28;60.77
48810;BME280;40070;47.322;18.784;2023-02-11T06:12:29;1021.85;;;-3.46;61.24
48810;BME280;40070;47.322;18.784;2023-02-11T06:14:32;1021.82;;;-3.28;60.94
48810;BME280;40070;47.322;18.784;2023-02-11T06:16:34;1021.80;;;-3.40;61.17
48810;BME280;40070;47.322;18.784;2023-02-11T06:18:37;1021.79;;;-3.46;61.50
48810;BME280;40070;47.322;18.784;2023-02-11T06:20:39;1021.82;;;-3.33;61.27
48810;BME280;40070;47.322;18.784;2023-02-11T06:22:41;1021.86;;;-3.42;61.88
48810;BME280;40070;47.322;18.784;2023-02-11T06:24:44;1021.85;;;-3.57;62.42
48810;BME280;40070;47.322;18.784;2023-02-11T06:26:46;1021.77;;;-3.32;61.90
48810;BME280;40070;47.322;18.784;2023-02-11T06:28:48;1021.72;;;-3.14;61.82
48810;BME280;40070;47.322;18.784;2023-02-11T06:30:51;1021.76;;;-3.29;62.25
48810;BME280;40070;47.322;18.784;2023-02-11T06:32:53;1021.76;;;-3.23;62.35
48810;BME280;40070;47.322;18.784;2023-02-11T06:34:55;1021.69;;;-3.15;62.21
48810;BME280;40070;47.322;18.784;2023-02-11T06:36:58;1021.67;;;-2.96;62.24
48810;BME280;40070;47.322;18.784;2023-02-11T06:39:00;1021.69;;;-2.79;61.93
48810;BME280;40070;47.322;18.784;2023-02-11T06:41:03;1021.67;;;-2.61;61.74
48810;BME280;40070;47.322;18.784;2023-02-11T06:43:05;1021.63;;;-2.46;61.69
48810;BME280;40070;47.322;18.784;2023-02-11T06:45:07;1021.67;;;-2.56;61.63
48810;BME280;40070;47.322;18.784;2023-02-11T06:47:10;1021.68;;;-2.62;62.37
48810;BME280;40070;47.322;18.784;2023-02-11T06:49:12;1021.65;;;-2.30;61.92
48810;BME280;40070;47.322;18.784;2023-02-11T06:51:15;1021.59;;;-2.16;61.62
48810;BME280;40070;47.322;18.784;2023-02-11T06:53:17;1021.56;;;-2.18;61.77
48810;BME280;40070;47.322;18.784;2023-02-11T06:55:20;1021.53;;;-1.99;61.74
48810;BME280;40070;47.322;18.784;2023-02-11T06:57:22;1021.52;;;-1.85;61.61
48810;BME280;40070;47.322;18.784;2023-02-11T06:59:24;1021.46;;;-1.70;61.27
48810;BME280;40070;47.322;18.784;2023-02-11T07:01:27;1021.44;;;-1.73;61.22
48810;BME280;40070;47.322;18.784;2023-02-11T07:03:29;1021.44;;;-1.57;61.33
48810;BME280;40070;47.322;18.784;2023-02-11T07:05:31;1021.43;;;-1.41;61.13
48810;BME280;40070;47.322;18.784;2023-02-11T07:07:34;1021.40;;;-1.36;61.33
48810;BME280;40070;47.322;18.784;2023-02-11T07:09:36;1021.41;;;-1.58;61.61
48810;BME280;40070;47.322;18.784;2023-02-11T07:11:39;1021.39;;;-1.57;61.91
48810;BME280;40070;47.322;18.784;2023-02-11T07:13:41;1021.36;;;-1.28;61.32
48810;BME280;40070;47.322;18.784;2023-02-11T07:15:44;1021.37;;;-1.29;61.35
48810;BME280;40070;47.322;18.784;2023-02-11T07:17:46;1021.37;;;-1.61;61.72
48810;BME280;40070;47.322;18.784;2023-02-11T07:19:48;1021.35;;;-1.47;61.50
48810;BME280;40070;47.322;18.784;2023-02-11T07:21:51;1021.33;;;-1.32;61.75
48810;BME280;40070;47.322;18.784;2023-02-11T07:23:53;1021.33;;;-1.20;61.22
48810;BME280;40070;47.322;18.784;2023-02-11T07:25:55;1021.33;;;-0.99;61.03
48810;BME280;40070;47.322;18.784;2023-02-11T07:27:58;1021.39;;;-0.90;60.94
48810;BME280;40070;47.322;18.784;2023-02-11T07:30:00;1021.36;;;-1.02;61.65
48810;BME280;40070;47.322;18.784;2023-02-11T07:32:02;1021.41;;;-0.77;61.49
48810;BME280;40070;47.322;18.784;2023-02-11T07:34:05;1021.39;;;-0.55;60.94
48810;BME280;40070;47.322;18.784;2023-02-11T07:36:07;1021.40;;;-0.75;61.70
48810;BME280;40070;47.322;18.784;2023-02-11T07:38:11;1021.35;;;-0.38;60.91
48810;BME280;40070;47.322;18.784;2023-02-11T07:40:13;1021.40;;;-0.14;60.09
48810;BME280;40070;47.322;18.784;2023-02-11T07:42:15;1021.40;;;-0.17;59.98
48810;BME280;40070;47.322;18.784;2023-02-11T07:44:18;1021.41;;;-0.02;59.56
48810;BME280;40070;47.322;18.784;2023-02-11T07:46:25;1021.39;;;0.03;59.46
48810;BME280;40070;47.322;18.784;2023-02-11T07:48:27;1021.42;;;0.13;59.42
48810;BME280;40070;47.322;18.784;2023-02-11T07:50:30;1021.38;;;0.32;58.93
48810;BME280;40070;47.322;18.784;2023-02-11T07:52:32;1021.35;;;0.28;58.94
48810;BME280;40070;47.322;18.784;2023-02-11T07:54:34;1021.31;;;0.22;59.18
48810;BME280;40070;47.322;18.784;2023-02-11T07:56:37;1021.31;;;-0.03;60.01
48810;BME280;40070;47.322;18.784;2023-02-11T07:58:39;1021.22;;;0.36;59.51
48810;BME280;40070;47.322;18.784;2023-02-11T08:00:42;1021.12;;;0.46;59.53
48810;BME280;40070;47.322;18.784;2023-02-11T08:02:44;1021.06;;;0.50;59.67
48810;BME280;40070;47.322;18.784;2023-02-11T08:04:46;1021.09;;;0.37;60.36
48810;BME280;40070;47.322;18.784;2023-02-11T08:06:49;1021.09;;;0.41;60.76
48810;BME280;40070;47.322;18.784;2023-02-11T08:08:51;1021.05;;;0.45;61.14
48810;BME280;40070;47.322;18.784;2023-02-11T08:10:54;1021.02;;;0.57;61.16
48810;BME280;40070;47.322;18.784;2023-02-11T08:12:56;1021.06;;;0.74;60.88
48810;BME280;40070;47.322;18.784;2023-02-11T08:14:58;1021.09;;;0.93;60.52
48810;BME280;40070;47.322;18.784;2023-02-11T08:17:01;1021.11;;;1.06;60.31
48810;BME280;40070;47.322;18.784;2023-02-11T08:19:05;1021.11;;;1.24;60.21
48810;BME280;40070;47.322;18.784;2023-02-11T08:21:09;1021.09;;;1.38;59.96
48810;BME280;40070;47.322;18.784;2023-02-11T08:23:11;1021.11;;;1.62;59.42
48810;BME280;40070;47.322;18.784;2023-02-11T08:25:13;1021.11;;;1.56;59.49
48810;BME280;40070;47.322;18.784;2023-02-11T08:27:16;1021.13;;;1.57;59.66
48810;BME280;40070;47.322;18.784;2023-02-11T08:29:18;1021.14;;;1.79;59.10
48810;BME280;40070;47.322;18.784;2023-02-11T08:31:22;1021.14;;;1.71;59.27
48810;BME280;40070;47.322;18.784;2023-02-11T08:33:24;1021.08;;;1.63;60.01
48810;BME280;40070;47.322;18.784;2023-02-11T08:35:27;1021.08;;;1.76;59.73
48810;BME280;40070;47.322;18.784;2023-02-11T08:37:29;1021.05;;;1.52;60.29
48810;BME280;40070;47.322;18.784;2023-02-11T08:39:31;1020.97;;;1.79;60.12
48810;BME280;40070;47.322;18.784;2023-02-11T08:41:34;1020.92;;;1.83;60.36
48810;BME280;40070;47.322;18.784;2023-02-11T08:43:36;1020.91;;;2.08;60.00
48810;BME280;40070;47.322;18.784;2023-02-11T08:45:39;1020.95;;;2.14;59.79
48810;BME280;40070;47.322;18.784;2023-02-11T08:47:41;1020.92;;;2.28;59.70
48810;BME280;40070;47.322;18.784;2023-02-11T08:49:43;1021.00;;;1.83;61.53
48810;BME280;40070;47.322;18.784;2023-02-11T08:51:46;1020.96;;;2.30;60.27
48810;BME280;40070;47.322;18.784;2023-02-11T08:53:48;1020.98;;;2.27;59.39
48810;BME280;40070;47.322;18.784;2023-02-11T08:55:54;1021.00;;;2.25;59.52
48810;BME280;40070;47.322;18.784;2023-02-11T08:57:56;1020.96;;;2.37;59.00
48810;BME280;40070;47.322;18.784;2023-02-11T08:59:58;1020.97;;;2.35;59.30
48810;BME280;40070;47.322;18.784;2023-02-11T09:02:01;1021.02;;;2.18;59.96
48810;BME280;40070;47.322;18.784;2023-02-11T09:04:03;1020.99;;;2.57;58.67
48810;BME280;40070;47.322;18.784;2023-02-11T09:06:06;1021.02;;;2.51;58.73
48810;BME280;40070;47.322;18.784;2023-02-11T09:08:10;1020.99;;;2.17;59.09
48810;BME280;40070;47.322;18.784;2023-02-11T09:10:12;1021.03;;;2.08;59.44
48810;BME280;40070;47.322;18.784;2023-02-11T09:12:15;1021.00;;;1.92;59.92
48810;BME280;40070;47.322;18.784;2023-02-11T09:14:18;1021.03;;;2.11;59.75
48810;BME280;40070;47.322;18.784;2023-02-11T09:16:22;1020.99;;;2.10;59.69
48810;BME280;40070;47.322;18.784;2023-02-11T09:18:25;1020.93;;;2.33;58.81
48810;BME280;40070;47.322;18.784;2023-02-11T09:20:27;1020.92;;;2.55;58.27
48810;BME280;40070;47.322;18.784;2023-02-11T09:22:30;1020.90;;;2.52;58.17
48810;BME280;40070;47.322;18.784;2023-02-11T09:24:32;1020.88;;;2.79;58.18
48810;BME280;40070;47.322;18.784;2023-02-11T09:26:34;1020.85;;;2.92;57.52
48810;BME280;40070;47.322;18.784;2023-02-11T09:28:37;1020.85;;;2.93;56.53
48810;BME280;40070;47.322;18.784;2023-02-11T09:30:39;1020.79;;;2.58;57.09
48810;BME280;40070;47.322;18.784;2023-02-11T09:32:42;1020.77;;;2.61;56.93
48810;BME280;40070;47.322;18.784;2023-02-11T09:34:44;1020.76;;;2.86;57.11
48810;BME280;40070;47.322;18.784;2023-02-11T09:36:46;1020.77;;;3.10;56.25
48810;BME280;40070;47.322;18.784;2023-02-11T09:38:49;1020.77;;;3.12;56.57
48810;BME280;40070;47.322;18.784;2023-02-11T09:40:51;1020.76;;;3.35;55.96
48810;BME280;40070;47.322;18.784;2023-02-11T09:43:03;1020.68;;;3.74;55.35
48810;BME280;40070;47.322;18.784;2023-02-11T09:45:41;1020.62;;;4.14;54.71
48810;BME280;40070;47.322;18.784;2023-02-11T09:47:32;1020.66;;;4.05;53.54
48810;BME280;40070;47.322;18.784;2023-02-11T09:49:43;1020.62;;;4.45;53.31
48810;BME280;40070;47.322;18.784;2023-02-11T09:54:03;1020.59;;;4.73;52.38
48810;BME280;40070;47.322;18.784;2023-02-11T09:56:10;1020.57;;;4.91;50.81
48810;BME280;40070;47.322;18.784;2023-02-11T10:00:36;1020.50;;;4.88;50.77
48810;BME280;40070;47.322;18.784;2023-02-11T10:02:48;1020.44;;;5.18;50.22
48810;BME280;40070;47.322;18.784;2023-02-11T10:05:08;1020.40;;;5.42;49.98
48810;BME280;40070;47.322;18.784;2023-02-11T10:07:24;1020.43;;;5.48;49.41
48810;BME280;40070;47.322;18.784;2023-02-11T10:09:50;1020.45;;;5.23;49.45
48810;BME280;40070;47.322;18.784;2023-02-11T10:12:16;1020.41;;;5.42;49.55
48810;BME280;40070;47.322;18.784;2023-02-11T10:14:26;1020.40;;;5.35;49.80
48810;BME280;40070;47.322;18.784;2023-02-11T10:18:48;1020.22;;;5.85;48.69
48810;BME280;40070;47.322;18.784;2023-02-11T10:23:23;1020.17;;;5.99;48.03
48810;BME280;40070;47.322;18.784;2023-02-11T10:25:27;1020.14;;;5.57;49.43
48810;BME280;40070;47.322;18.784;2023-02-11T10:27:31;1020.10;;;5.65;49.37
48810;BME280;40070;47.322;18.784;2023-02-11T10:29:35;1020.14;;;5.59;48.37
48810;BME280;40070;47.322;18.784;2023-02-11T10:31:40;1020.05;;;5.69;48.58
48810;BME280;40070;47.322;18.784;2023-02-11T10:33:55;1020.01;;;5.74;48.56
48810;BME280;40070;47.322;18.784;2023-02-11T10:35:58;1019.99;;;5.86;48.09
48810;BME280;40070;47.322;18.784;2023-02-11T10:38:01;1019.90;;;6.37;47.77
48810;BME280;40070;47.322;18.784;2023-02-11T10:40:05;1019.91;;;6.47;46.88
48810;BME280;40070;47.322;18.784;2023-02-11T10:42:08;1019.96;;;6.31;47.40
48810;BME280;40070;47.322;18.784;2023-02-11T10:44:20;1019.92;;;6.21;47.37
48810;BME280;40070;47.322;18.784;2023-02-11T10:46:25;1019.89;;;6.39;47.60
48810;BME280;40070;47.322;18.784;2023-02-11T10:48:49;1019.88;;;6.55;47.26
48810;BME280;40070;47.322;18.784;2023-02-11T10:53:10;1019.84;;;6.54;47.28
48810;BME280;40070;47.322;18.784;2023-02-11T10:55:18;1019.75;;;6.51;47.81
48810;BME280;40070;47.322;18.784;2023-02-11T10:57:21;1019.74;;;6.61;47.62
48810;BME280;40070;47.322;18.784;2023-02-11T10:59:33;1019.75;;;6.73;47.45
48810;BME280;40070;47.322;18.784;2023-02-11T11:01:47;1019.68;;;6.98;47.59
48810;BME280;40070;47.322;18.784;2023-02-11T11:03:51;1019.60;;;7.51;46.80
48810;BME280;40070;47.322;18.784;2023-02-11T11:06:00;1019.57;;;7.79;45.59
48810;BME280;40070;47.322;18.784;2023-02-11T11:08:05;1019.57;;;7.84;45.53
48810;BME280;40070;47.322;18.784;2023-02-11T11:10:25;1019.58;;;8.13;44.99
48810;BME280;40070;47.322;18.784;2023-02-11T11:12:44;1019.50;;;8.19;44.72
48810;BME280;40070;47.322;18.784;2023-02-11T11:14:41;1019.46;;;8.33;41.98
48810;BME280;40070;47.322;18.784;2023-02-11T11:16:54;1019.35;;;8.24;41.45
48810;BME280;40070;47.322;18.784;2023-02-11T11:21:22;1019.27;;;8.86;41.13
48810;BME280;40070;47.322;18.784;2023-02-11T11:23:25;1019.30;;;8.95;41.87
48810;BME280;40070;47.322;18.784;2023-02-11T11:25:28;1019.19;;;8.79;41.68
48810;BME280;40070;47.322;18.784;2023-02-11T11:27:31;1019.21;;;8.94;41.81
48810;BME280;40070;47.322;18.784;2023-02-11T11:29:46;1019.17;;;9.56;40.63
48810;BME280;40070;47.322;18.784;2023-02-11T11:31:56;1019.07;;;9.36;41.40
48810;BME280;40070;47.322;18.784;2023-02-11T11:34:00;1019.07;;;9.31;40.82
48810;BME280;40070;47.322;18.784;2023-02-11T11:36:07;1018.97;;;9.21;40.30
48810;BME280;40070;47.322;18.784;2023-02-11T11:38:10;1018.92;;;9.41;40.62